Time;durP1;ratioP1;P1;durP2;ratioP2;P2;SDS_P1;SDS_P2;PMS_P1;PMS_P2;Temp;Humidity;BMP_temperature;BMP_pressure;BME280_temperature;BME280_humidity;BME280_pressure;Samples;Min_cycle;Max_cycle;Signal;HPM_P1;HPM_P2
2023/11/25 00:00:09;;;;;;;;;;;;;;;1.08;100.00;95644.81;5105685;28;19941;-70
2023/11/25 00:02:35;;;;;;;;;;;;;;;0.98;100.00;95645.84;5106794;28;19959;-70
2023/11/25 00:05:01;;;;;;;;;;;;;;;0.95;100.00;95653.19;5104556;28;20191;-70
2023/11/25 00:07:27;;;;;;;;;;;;;;;0.90;100.00;95651.09;5106360;28;20234;-69
2023/11/25 00:09:53;;;;;;;;;;;;;;;0.85;100.00;95655.22;5106302;28;19953;-70
2023/11/25 00:12:19;;;;;;;;;;;;;;;0.78;100.00;95650.75;5105759;28;19944;-73
2023/11/25 00:14:45;;;;;;;;;;;;;;;0.71;100.00;95647.25;5105731;28;19933;-75
2023/11/25 00:17:11;;;;;;;;;;;;;;;0.67;100.00;95658.09;5122067;28;20241;-74
2023/11/25 00:19:37;;;;;;;;;;;;;;;0.66;100.00;95653.94;5122177;28;19942;-74
2023/11/25 00:22:03;;;;;;;;;;;;;;;0.64;100.00;95643.78;5104420;28;19937;-73
2023/11/25 00:24:29;;;;;;;;;;;;;;;0.61;100.00;95646.72;5088192;28;19982;-73
2023/11/25 00:26:54;;;;;;;;;;;;;;;0.58;100.00;95642.69;5106160;28;19999;-73
2023/11/25 00:29:20;;;;;;;;;;;;;;;0.59;100.00;95641.75;5121129;28;19942;-74
2023/11/25 00:31:52;;;;;;;;;;;;;;;0.61;100.00;95636.41;5105368;28;19961;-73
2023/11/25 00:34:18;;;;;;;;;;;;;;;0.58;100.00;95650.44;5104294;28;19960;-73
2023/11/25 00:36:45;;;;;;;;;;;;;;;0.58;100.00;95653.03;5121453;28;20224;-74
2023/11/25 00:39:11;;;;;;;;;;;;;;;0.60;100.00;95656.22;5105097;28;20268;-73
2023/11/25 00:41:38;;;;;;;;;;;;;;;0.64;100.00;95658.47;5105969;28;20133;-73
2023/11/25 00:44:04;;;;;;;;;;;;;;;0.65;100.00;95660.06;5105353;28;20130;-73
2023/11/25 00:46:30;;;;;;;;;;;;;;;0.62;100.00;95663.00;5104995;28;20003;-73
2023/11/25 00:48:55;;;;;;;;;;;;;;;0.59;100.00;95666.75;5105887;28;19939;-73
2023/11/25 00:51:21;;;;;;;;;;;;;;;0.58;100.00;95668.50;5105606;28;19943;-73
2023/11/25 00:53:47;;;;;;;;;;;;;;;0.63;100.00;95680.06;5104636;28;19943;-74
2023/11/25 00:56:13;;;;;;;;;;;;;;;0.61;100.00;95685.44;5120870;28;19941;-73
2023/11/25 00:58:39;;;;;;;;;;;;;;;0.60;100.00;95688.97;5121415;28;19981;-74
2023/11/25 01:01:05;;;;;;;;;;;;;;;0.59;100.00;95682.22;5104497;28;19939;-73
2023/11/25 01:03:30;;;;;;;;;;;;;;;0.58;100.00;95686.56;5104766;28;19943;-73
2023/11/25 01:05:57;;;;;;;;;;;;;;;0.59;100.00;95690.75;5120510;28;19955;-73
2023/11/25 01:08:26;;;;;;;;;;;;;;;0.63;100.00;95692.97;5120583;28;19952;-72
2023/11/25 01:10:51;;;;;;;;;;;;;;;0.67;100.00;95699.41;5104707;28;19943;-74
2023/11/25 01:13:17;;;;;;;;;;;;;;;0.67;100.00;95694.22;5104648;28;19940;-73
2023/11/25 01:15:43;;;;;;;;;;;;;;;0.69;100.00;95725.81;5104886;28;19930;-74
2023/11/25 01:18:09;;;;;;;;;;;;;;;0.71;100.00;95708.38;5104518;28;19987;-73
2023/11/25 01:20:35;;;;;;;;;;;;;;;0.74;100.00;95718.38;5105360;28;19939;-73
2023/11/25 01:23:01;;;;;;;;;;;;;;;0.76;100.00;95726.75;5104748;28;19938;-74
2023/11/25 01:25:27;;;;;;;;;;;;;;;0.74;100.00;95729.50;5104416;28;19961;-73
2023/11/25 01:27:58;;;;;;;;;;;;;;;0.71;100.00;95726.47;5120225;28;19946;-73
2023/11/25 01:30:24;;;;;;;;;;;;;;;0.68;100.00;95737.94;5104044;28;19958;-69
2023/11/25 01:32:50;;;;;;;;;;;;;;;0.68;100.00;95748.25;5103249;28;19945;-69
2023/11/25 01:35:15;;;;;;;;;;;;;;;0.67;100.00;95751.78;5120950;28;19949;-68
2023/11/25 01:37:41;;;;;;;;;;;;;;;0.69;100.00;95752.44;5086643;28;19965;-70
2023/11/25 01:40:11;;;;;;;;;;;;;;;0.69;100.00;95759.38;5104040;28;20209;-68
2023/11/25 01:42:37;;;;;;;;;;;;;;;0.71;100.00;95765.16;5104239;28;19930;-69
2023/11/25 01:45:03;;;;;;;;;;;;;;;0.71;100.00;95762.59;5104646;28;20205;-73
2023/11/25 01:47:30;;;;;;;;;;;;;;;0.72;100.00;95769.38;5104732;28;20236;-76
2023/11/25 01:49:56;;;;;;;;;;;;;;;0.72;100.00;95765.00;5104140;28;20108;-76
2023/11/25 01:52:23;;;;;;;;;;;;;;;0.74;100.00;95778.53;5104687;28;19942;-76
2023/11/25 01:54:50;;;;;;;;;;;;;;;0.77;100.00;95779.97;5104868;28;19955;-76
2023/11/25 01:57:17;;;;;;;;;;;;;;;0.76;100.00;95779.16;5119962;28;19955;-76
2023/11/25 01:59:43;;;;;;;;;;;;;;;0.76;100.00;95778.38;5104829;28;19939;-77
2023/11/25 02:02:10;;;;;;;;;;;;;;;0.75;100.00;95784.50;5104287;28;19943;-72
2023/11/25 02:04:37;;;;;;;;;;;;;;;0.76;100.00;95796.44;5120468;28;20119;-73
2023/11/25 02:07:03;;;;;;;;;;;;;;;0.76;100.00;95791.28;5120522;28;19970;-70
2023/11/25 02:09:29;;;;;;;;;;;;;;;0.76;100.00;95788.69;5086040;28;19948;-70
2023/11/25 02:11:54;;;;;;;;;;;;;;;0.75;100.00;95787.06;5103929;28;19939;-70
2023/11/25 02:14:21;;;;;;;;;;;;;;;0.74;100.00;95783.69;5103965;28;19936;-70
2023/11/25 02:16:46;;;;;;;;;;;;;;;0.70;100.00;95781.63;5104451;28;20125;-70
2023/11/25 02:19:12;;;;;;;;;;;;;;;0.69;100.00;95783.38;5102811;28;19937;-69
2023/11/25 02:21:39;;;;;;;;;;;;;;;0.70;100.00;95792.75;5104426;28;20006;-74
2023/11/25 02:24:05;;;;;;;;;;;;;;;0.71;100.00;95799.50;5104348;28;19946;-73
2023/11/25 02:26:34;;;;;;;;;;;;;;;0.71;100.00;95802.09;5104274;28;20100;-74
2023/11/25 02:29:00;;;;;;;;;;;;;;;0.74;100.00;95809.50;5119653;28;19942;-74
2023/11/25 02:31:26;;;;;;;;;;;;;;;0.74;100.00;95811.28;5120443;28;20133;-74
2023/11/25 02:33:51;;;;;;;;;;;;;;;0.76;100.00;95810.13;5103732;28;19975;-73
2023/11/25 02:36:17;;;;;;;;;;;;;;;0.74;100.00;95814.66;5103751;28;19943;-74
2023/11/25 02:38:43;;;;;;;;;;;;;;;0.75;100.00;95816.25;5103607;28;19984;-74
2023/11/25 02:41:10;;;;;;;;;;;;;;;0.73;100.00;95817.41;5120381;28;19943;-77
2023/11/25 02:43:36;;;;;;;;;;;;;;;0.73;100.00;95812.25;5103639;28;19952;-69
2023/11/25 02:46:03;;;;;;;;;;;;;;;0.69;100.00;95805.81;5120138;28;19958;-70
2023/11/25 02:48:30;;;;;;;;;;;;;;;0.67;100.00;95808.56;5120222;28;19941;-70
2023/11/25 02:50:56;;;;;;;;;;;;;;;0.59;100.00;95824.91;5103578;28;19964;-70
2023/11/25 02:53:21;;;;;;;;;;;;;;;0.55;100.00;95823.66;5120154;28;20229;-69
2023/11/25 02:55:47;;;;;;;;;;;;;;;0.50;100.00;95838.81;5103527;28;19944;-70
2023/11/25 02:58:14;;;;;;;;;;;;;;;0.45;100.00;95832.59;5103430;28;19954;-73
2023/11/25 03:00:41;;;;;;;;;;;;;;;0.40;100.00;95838.25;5105679;28;20142;-72
2023/11/25 03:03:12;;;;;;;;;;;;;;;0.35;100.00;95845.69;5105606;28;19936;-73
2023/11/25 03:05:42;;;;;;;;;;;;;;;0.30;100.00;95861.66;5106084;28;20143;-73
2023/11/25 03:08:11;;;;;;;;;;;;;;;0.30;100.00;95861.66;5105835;28;19941;-73
2023/11/25 03:10:37;;;;;;;;;;;;;;;0.32;100.00;95861.50;5105784;28;19953;-73
2023/11/25 03:13:04;;;;;;;;;;;;;;;0.31;100.00;95865.84;5105692;28;20104;-73
2023/11/25 03:15:31;;;;;;;;;;;;;;;0.30;100.00;95861.66;5105163;28;19945;-73
2023/11/25 03:17:57;;;;;;;;;;;;;;;0.29;100.00;95859.25;5105638;28;19942;-79
2023/11/25 03:20:23;;;;;;;;;;;;;;;0.27;100.00;95861.19;5105136;28;20247;-88
2023/11/25 03:22:49;;;;;;;;;;;;;;;0.30;100.00;95878.91;5105140;28;19935;-88
2023/11/25 03:25:15;;;;;;;;;;;;;;;0.34;100.00;95875.84;5105023;28;20022;-88
2023/11/25 03:27:40;;;;;;;;;;;;;;;0.37;100.00;95888.38;5104997;28;19944;-89
2023/11/25 03:30:07;;;;;;;;;;;;;;;0.40;100.00;95889.84;5106421;28;19973;-88
2023/11/25 03:32:34;;;;;;;;;;;;;;;0.45;100.00;95900.44;5106812;28;20213;-89
2023/11/25 03:35:00;;;;;;;;;;;;;;;0.46;100.00;95896.88;5122981;28;19955;-71
2023/11/25 03:37:26;;;;;;;;;;;;;;;0.43;100.00;95904.97;5105220;28;19972;-71
2023/11/25 03:39:52;;;;;;;;;;;;;;;0.43;100.00;95912.72;5123122;28;20125;-71
2023/11/25 03:42:20;;;;;;;;;;;;;;;0.43;100.00;95909.34;5107207;28;19946;-70
2023/11/25 03:44:46;;;;;;;;;;;;;;;0.42;100.00;95916.28;5106307;28;19957;-71
2023/11/25 03:47:13;;;;;;;;;;;;;;;0.38;100.00;95913.22;5105371;28;19959;-70
2023/11/25 03:49:39;;;;;;;;;;;;;;;0.38;100.00;95920.16;5122960;28;19943;-71
2023/11/25 03:52:05;;;;;;;;;;;;;;;0.39;100.00;95934.66;5105759;28;19939;-70
2023/11/25 03:54:33;;;;;;;;;;;;;;;0.37;100.00;95939.16;5106971;28;19939;-74
2023/11/25 03:56:59;;;;;;;;;;;;;;;0.38;100.00;95935.63;5106907;28;19935;-73
2023/11/25 03:59:25;;;;;;;;;;;;;;;0.39;100.00;95944.97;5106078;28;19940;-73
2023/11/25 04:01:50;;;;;;;;;;;;;;;0.39;100.00;95942.38;5088798;28;19940;-73
2023/11/25 04:04:16;;;;;;;;;;;;;;;0.41;100.00;95940.44;5105546;28;19946;-73
2023/11/25 04:06:42;;;;;;;;;;;;;;;0.44;100.00;95934.13;5105255;28;19953;-73
2023/11/25 04:09:08;;;;;;;;;;;;;;;0.45;100.00;95930.59;5105882;28;19944;-73
2023/11/25 04:11:34;;;;;;;;;;;;;;;0.44;100.00;95929.78;5121652;28;20250;-78
2023/11/25 04:14:00;;;;;;;;;;;;;;;0.40;100.00;95941.44;5106553;28;19935;-85
2023/11/25 04:16:26;;;;;;;;;;;;;;;0.40;100.00;95949.16;5121559;28;19945;-84
2023/11/25 04:18:52;;;;;;;;;;;;;;;0.41;100.00;95953.34;5105876;28;19941;-84
2023/11/25 04:21:21;;;;;;;;;;;;;;;0.39;100.00;95945.75;5121451;28;19942;-84
2023/11/25 04:23:48;;;;;;;;;;;;;;;0.40;100.00;95954.31;5105619;28;20248;-84
2023/11/25 04:26:14;;;;;;;;;;;;;;;0.43;100.00;95958.34;5105989;28;20151;-83
2023/11/25 04:28:40;;;;;;;;;;;;;;;0.42;100.00;95960.13;5106276;28;19944;-83
2023/11/25 04:31:06;;;;;;;;;;;;;;;0.42;100.00;95962.69;5105560;28;19943;-73
2023/11/25 04:33:34;;;;;;;;;;;;;;;0.39;100.00;95958.66;5121280;28;19939;-70
2023/11/25 04:36:00;;;;;;;;;;;;;;;0.36;100.00;95959.00;5121268;28;19938;-71
2023/11/25 04:38:26;;;;;;;;;;;;;;;0.36;100.00;95971.09;5105440;28;19972;-71
2023/11/25 04:40:52;;;;;;;;;;;;;;;0.34;100.00;95967.88;5121170;28;19958;-71
2023/11/25 04:43:19;;;;;;;;;;;;;;;0.34;100.00;95970.47;5105685;28;19956;-71
2023/11/25 04:45:44;;;;;;;;;;;;;;;0.32;100.00;95972.41;5121789;28;20100;-71
2023/11/25 04:48:10;;;;;;;;;;;;;;;0.30;100.00;95972.56;5120908;28;19944;-73
2023/11/25 04:50:36;;;;;;;;;;;;;;;0.30;100.00;95974.34;5121665;28;19983;-73
2023/11/25 04:53:02;;;;;;;;;;;;;;;0.28;100.00;95971.91;5105302;28;19977;-73
2023/11/25 04:55:28;;;;;;;;;;;;;;;0.27;100.00;95990.91;5104477;28;19949;-73
2023/11/25 04:57:54;;;;;;;;;;;;;;;0.25;100.00;95985.13;5121563;28;20098;-75
2023/11/25 05:00:21;;;;;;;;;;;;;;;0.22;100.00;95993.19;5120818;28;19939;-73
2023/11/25 05:02:47;;;;;;;;;;;;;;;0.19;100.00;95985.81;5105075;28;19947;-73
2023/11/25 05:05:13;;;;;;;;;;;;;;;0.15;100.00;96000.78;5105094;28;20245;-75
2023/11/25 05:07:40;;;;;;;;;;;;;;;0.13;100.00;95995.00;5121106;28;19959;-70
2023/11/25 05:10:09;;;;;;;;;;;;;;;0.02;100.00;95986.78;5121446;28;19949;-75
2023/11/25 05:12:36;;;;;;;;;;;;;;;-0.05;100.00;95995.16;5103470;28;20013;-76
2023/11/25 05:15:04;;;;;;;;;;;;;;;-0.08;100.00;95994.69;5105173;28;19944;-76
2023/11/25 05:17:30;;;;;;;;;;;;;;;-0.10;100.00;96000.00;5121215;28;19953;-76
2023/11/25 05:19:56;;;;;;;;;;;;;;;-0.09;100.00;95995.66;5104410;28;19943;-76
2023/11/25 05:22:22;;;;;;;;;;;;;;;-0.08;100.00;96008.38;5121052;28;19938;-76
2023/11/25 05:24:49;;;;;;;;;;;;;;;-0.06;100.00;96016.75;5121121;28;19962;-76
2023/11/25 05:27:14;;;;;;;;;;;;;;;-0.07;100.00;96017.72;5121059;28;20109;-80
2023/11/25 05:29:40;;;;;;;;;;;;;;;-0.07;100.00;96017.72;5121182;28;19944;-76
2023/11/25 05:32:08;;;;;;;;;;;;;;;-0.05;100.00;96025.28;5120296;28;19941;-77
2023/11/25 05:34:35;;;;;;;;;;;;;;;-0.04;100.00;96016.63;5120204;28;19942;-78
2023/11/25 05:37:01;;;;;;;;;;;;;;;-0.04;100.00;96019.97;5120356;28;19946;-76
2023/11/25 05:39:28;;;;;;;;;;;;;;;-0.06;100.00;96021.91;5104151;28;19969;-76
2023/11/25 05:41:54;;;;;;;;;;;;;;;-0.07;100.00;96035.75;5104559;28;19949;-78
2023/11/25 05:44:21;;;;;;;;;;;;;;;-0.08;100.00;96028.22;5104626;28;19950;-79
2023/11/25 05:46:46;;;;;;;;;;;;;;;-0.09;100.00;96024.00;5120789;28;19960;-74
2023/11/25 05:49:12;;;;;;;;;;;;;;;-0.11;100.00;96026.72;5103148;28;19937;-73
2023/11/25 05:51:39;;;;;;;;;;;;;;;-0.12;100.00;96038.03;5120106;28;19936;-72
2023/11/25 05:54:05;;;;;;;;;;;;;;;-0.16;100.00;96034.16;5103749;28;20152;-73
2023/11/25 05:56:31;;;;;;;;;;;;;;;-0.17;100.00;96039.47;5104178;28;20128;-73
2023/11/25 05:58:57;;;;;;;;;;;;;;;-0.18;100.00;96043.03;5104106;28;19937;-73
2023/11/25 06:01:23;;;;;;;;;;;;;;;-0.20;100.00;96048.31;5120730;28;20237;-79
2023/11/25 06:03:52;;;;;;;;;;;;;;;-0.21;100.00;96044.94;5104071;28;19977;-76
2023/11/25 06:06:22;;;;;;;;;;;;;;;-0.21;100.00;96054.44;5104541;28;19954;-73
2023/11/25 06:08:48;;;;;;;;;;;;;;;-0.22;100.00;96053.63;5102849;28;19947;-73
2023/11/25 06:11:21;;;;;;;;;;;;;;;-0.22;100.00;96053.63;5104047;28;19965;-73
2023/11/25 06:13:47;;;;;;;;;;;;;;;-0.21;100.00;96054.44;5086768;28;19960;-74
2023/11/25 06:16:14;;;;;;;;;;;;;;;-0.19;100.00;96060.22;5120642;28;20103;-74
2023/11/25 06:18:40;;;;;;;;;;;;;;;-0.18;100.00;96066.22;5103404;28;19942;-74
2023/11/25 06:21:06;;;;;;;;;;;;;;;-0.21;100.00;96060.41;5103959;28;19942;-70
2023/11/25 06:23:32;;;;;;;;;;;;;;;-0.22;100.00;96052.84;5120474;28;20171;-81
2023/11/25 06:25:59;;;;;;;;;;;;;;;-0.20;100.00;96058.63;5103865;28;20096;-82
2023/11/25 06:28:25;;;;;;;;;;;;;;;-0.21;100.00;96068.16;5103876;28;19962;-82
2023/11/25 06:30:53;;;;;;;;;;;;;;;-0.17;100.00;96060.09;5103857;28;20217;-81
2023/11/25 06:33:21;;;;;;;;;;;;;;;-0.16;100.00;96059.94;5107348;28;19938;-82
2023/11/25 06:35:47;;;;;;;;;;;;;;;-0.12;100.00;96061.22;5108252;28;19940;-83
2023/11/25 06:38:13;;;;;;;;;;;;;;;-0.09;100.00;96055.72;5107573;28;19968;-73
2023/11/25 06:40:40;;;;;;;;;;;;;;;-0.07;100.00;96058.16;5123575;28;19940;-71
2023/11/25 06:43:06;;;;;;;;;;;;;;;-0.05;100.00;96057.03;5124234;28;19941;-71
2023/11/25 06:45:33;;;;;;;;;;;;;;;-0.03;100.00;96064.59;5123239;28;20034;-71
2023/11/25 06:47:59;;;;;;;;;;;;;;;-0.01;100.00;96054.94;5107363;28;19959;-71
2023/11/25 06:50:25;;;;;;;;;;;;;;;0.00;100.00;96056.56;5123399;28;19936;-71
2023/11/25 06:52:51;;;;;;;;;;;;;;;0.05;100.00;96053.50;5124145;28;20098;-71
2023/11/25 06:55:18;;;;;;;;;;;;;;;0.07;100.00;96054.94;5123192;28;19931;-71
2023/11/25 06:57:44;;;;;;;;;;;;;;;0.09;100.00;96052.22;5124048;28;19937;-77
2023/11/25 07:00:11;;;;;;;;;;;;;;;0.10;100.00;96044.28;5107269;28;20002;-74
2023/11/25 07:02:37;;;;;;;;;;;;;;;0.14;100.00;96048.16;5107239;28;20227;-74
2023/11/25 07:05:03;;;;;;;;;;;;;;;0.16;100.00;96041.06;5123879;28;20114;-73
2023/11/25 07:07:29;;;;;;;;;;;;;;;0.18;100.00;96054.59;5107049;28;20052;-73
2023/11/25 07:09:55;;;;;;;;;;;;;;;0.20;100.00;96055.25;5123712;28;19939;-74
2023/11/25 07:12:21;;;;;;;;;;;;;;;0.21;100.00;96050.91;5107123;28;19941;-73
2023/11/25 07:14:47;;;;;;;;;;;;;;;0.20;100.00;96050.09;5107562;28;19937;-73
2023/11/25 07:17:13;;;;;;;;;;;;;;;0.20;100.00;96059.59;5106481;28;20265;-74
2023/11/25 07:19:41;;;;;;;;;;;;;;;0.22;100.00;96062.81;5107748;28;20022;-71
2023/11/25 07:22:08;;;;;;;;;;;;;;;0.23;100.00;96061.84;5107373;28;19942;-70
2023/11/25 07:24:39;;;;;;;;;;;;;;;0.25;100.00;96053.94;5123460;28;19945;-70
2023/11/25 07:27:06;;;;;;;;;;;;;;;0.24;100.00;96058.31;5106661;28;19960;-70
2023/11/25 07:29:32;;;;;;;;;;;;;;;0.25;100.00;96062.50;5106749;28;19941;-70
2023/11/25 07:32:00;;;;;;;;;;;;;;;0.25;100.00;96072.00;5106704;28;19932;-71
2023/11/25 07:34:28;;;;;;;;;;;;;;;0.27;100.00;96085.53;5089425;28;19939;-74
2023/11/25 07:36:55;;;;;;;;;;;;;;;0.29;100.00;96079.25;5106608;28;19943;-79
2023/11/25 07:39:22;;;;;;;;;;;;;;;0.30;100.00;96073.13;5088353;28;19989;-79
2023/11/25 07:41:54;;;;;;;;;;;;;;;0.32;100.00;96073.78;5123078;28;19944;-80
2023/11/25 07:44:21;;;;;;;;;;;;;;;0.33;100.00;96077.97;5121641;28;19963;-79
2023/11/25 07:46:48;;;;;;;;;;;;;;;0.34;100.00;96082.16;5106848;28;19958;-80
2023/11/25 07:49:14;;;;;;;;;;;;;;;0.37;100.00;96074.09;5106279;28;19936;-78
2023/11/25 07:51:39;;;;;;;;;;;;;;;0.38;100.00;96073.13;5106595;28;19936;-79
2023/11/25 07:54:05;;;;;;;;;;;;;;;0.42;100.00;96070.22;5106298;28;19941;-73
2023/11/25 07:56:31;;;;;;;;;;;;;;;0.42;100.00;96073.63;5088824;28;19946;-71
2023/11/25 07:58:57;;;;;;;;;;;;;;;0.42;100.00;96065.06;5121844;28;19943;-70
2023/11/25 08:01:23;;;;;;;;;;;;;;;0.43;100.00;96074.41;5122247;28;19930;-71
2023/11/25 08:03:49;;;;;;;;;;;;;;;0.45;100.00;96075.84;5106278;28;19938;-71
2023/11/25 08:06:15;;;;;;;;;;;;;;;0.45;100.00;96081.00;5104736;28;19946;-71
2023/11/25 08:08:41;;;;;;;;;;;;;;;0.45;100.00;96067.31;5105945;28;19942;-71
2023/11/25 08:11:08;;;;;;;;;;;;;;;0.47;100.00;96075.69;5106549;28;19941;-73
2023/11/25 08:13:34;;;;;;;;;;;;;;;0.52;100.00;96083.75;5121804;28;19945;-71
2023/11/25 08:16:02;;;;;;;;;;;;;;;0.53;100.00;96078.44;5122317;28;19952;-71
2023/11/25 08:18:28;;;;;;;;;;;;;;;0.54;100.00;96068.91;5121617;28;19939;-71
2023/11/25 08:20:53;;;;;;;;;;;;;;;0.58;100.00;96060.66;5121499;28;20126;-71
2023/11/25 08:23:19;;;;;;;;;;;;;;;0.65;100.00;96060.84;5104551;28;19941;-71
2023/11/25 08:25:46;;;;;;;;;;;;;;;0.70;100.00;96055.19;5122245;28;19981;-71
2023/11/25 08:28:12;;;;;;;;;;;;;;;0.78;100.00;96055.94;5104994;28;19959;-70
2023/11/25 08:30:38;;;;;;;;;;;;;;;1.02;100.00;96062.78;5122026;28;19943;-74
2023/11/25 08:33:04;;;;;;;;;;;;;;;1.33;100.00;96050.88;5121383;28;19969;-70
2023/11/25 08:35:30;;;;;;;;;;;;;;;1.59;100.00;96050.56;5121298;28;19944;-71
2023/11/25 08:37:57;;;;;;;;;;;;;;;1.77;100.00;96043.34;5121064;28;19975;-71
2023/11/25 08:40:22;;;;;;;;;;;;;;;1.99;100.00;96035.75;5105354;28;19947;-71
2023/11/25 08:42:52;;;;;;;;;;;;;;;2.19;100.00;96052.41;5121126;28;19982;-71
2023/11/25 08:45:19;;;;;;;;;;;;;;;2.44;100.00;96039.25;5103966;28;20140;-71
2023/11/25 08:47:45;;;;;;;;;;;;;;;2.57;100.00;96023.91;5087185;28;19975;-84
2023/11/25 08:50:15;;;;;;;;;;;;;;;2.70;100.00;96015.50;5105146;28;19941;-70
2023/11/25 08:52:45;;;;;;;;;;;;;;;2.84;100.00;96061.31;5105081;28;19945;-74
2023/11/25 08:55:13;;;;;;;;;;;;;;;3.01;100.00;96028.25;5120790;28;20242;-74
2023/11/25 08:57:38;;;;;;;;;;;;;;;3.18;100.00;96043.63;5104915;28;19948;-75
2023/11/25 09:00:14;;;;;;;;;;;;;;;3.27;100.00;96018.41;5104929;28;19935;-76
2023/11/25 09:02:41;;;;;;;;;;;;;;;3.28;100.00;96017.41;5104283;28;20343;-75
2023/11/25 09:05:07;;;;;;;;;;;;;;;3.28;100.00;96007.84;5105625;28;20121;-76
2023/11/25 09:07:33;;;;;;;;;;;;;;;3.29;100.00;96004.25;5086734;28;19953;-73
2023/11/25 09:09:59;;;;;;;;;;;;;;;3.43;100.00;96023.38;5103608;28;19942;-78
2023/11/25 09:12:25;;;;;;;;;;;;;;;3.57;100.00;96030.31;5104707;28;20000;-78
2023/11/25 09:14:50;;;;;;;;;;;;;;;3.57;100.00;96024.28;5104700;28;19937;-80
2023/11/25 09:17:16;;;;;;;;;;;;;;;3.54;100.00;96053.19;5105218;28;20238;-81
2023/11/25 09:19:44;;;;;;;;;;;;;;;3.44;100.00;96036.16;5105413;28;20014;-81
2023/11/25 09:22:11;;;;;;;;;;;;;;;3.35;100.00;96042.41;5120418;28;19956;-80
2023/11/25 09:24:39;;;;;;;;;;;;;;;3.14;100.00;96034.59;5104754;28;19936;-69
2023/11/25 09:27:04;;;;;;;;;;;;;;;2.92;100.00;96046.66;5104358;28;19957;-74
2023/11/25 09:29:30;;;;;;;;;;;;;;;2.85;100.00;96049.97;5104430;28;19965;-73
2023/11/25 09:31:56;;;;;;;;;;;;;;;3.03;100.00;96065.16;5104888;28;19933;-72
2023/11/25 09:34:23;;;;;;;;;;;;;;;3.20;100.00;96044.22;5105183;28;19974;-72
2023/11/25 09:36:49;;;;;;;;;;;;;;;3.33;100.00;96059.13;5104276;28;20223;-73
2023/11/25 09:39:15;;;;;;;;;;;;;;;3.47;100.00;96047.94;5104477;28;19965;-72
2023/11/25 09:41:41;;;;;;;;;;;;;;;3.44;100.00;96043.94;5105068;28;19938;-72
2023/11/25 09:44:08;;;;;;;;;;;;;;;3.64;100.00;96038.94;5104669;28;20130;-73
2023/11/25 09:46:34;;;;;;;;;;;;;;;3.78;100.00;96026.91;5104132;28;20237;-82
2023/11/25 09:49:00;;;;;;;;;;;;;;;3.77;100.00;96047.84;5104142;28;20210;-85
2023/11/25 09:51:32;;;;;;;;;;;;;;;3.75;100.00;96048.00;5104690;28;19949;-86
2023/11/25 09:54:02;;;;;;;;;;;;;;;3.67;100.00;96019.59;5104682;28;19942;-88
2023/11/25 09:56:28;;;;;;;;;;;;;;;3.54;100.00;96030.66;5104395;28;19940;-87
2023/11/25 09:58:54;;;;;;;;;;;;;;;3.31;100.00;96042.97;5104804;28;20121;-85
2023/11/25 10:01:22;;;;;;;;;;;;;;;3.28;100.00;96051.09;5104084;28;19940;-77
2023/11/25 10:03:49;;;;;;;;;;;;;;;3.27;100.00;96055.47;5103777;28;19942;-73
2023/11/25 10:06:15;;;;;;;;;;;;;;;3.29;100.00;96048.31;5120775;28;19942;-77
2023/11/25 10:08:41;;;;;;;;;;;;;;;3.29;100.00;96057.88;5108359;28;19957;-78
2023/11/25 10:11:08;;;;;;;;;;;;;;;3.31;100.00;96032.59;5108178;28;19936;-77
2023/11/25 10:13:34;;;;;;;;;;;;;;;3.37;100.00;96047.41;5108410;28;19949;-77
2023/11/25 10:16:01;;;;;;;;;;;;;;;3.50;100.00;96024.22;5108136;28;19942;-77
2023/11/25 10:18:28;;;;;;;;;;;;;;;3.71;100.00;95997.50;5124624;28;19952;-76
2023/11/25 10:20:58;;;;;;;;;;;;;;;3.83;100.00;96008.19;5107926;28;19946;-74
2023/11/25 10:23:24;;;;;;;;;;;;;;;3.80;100.00;95993.81;5107515;28;19950;-73
2023/11/25 10:25:53;;;;;;;;;;;;;;;3.78;100.00;96010.53;5108362;28;19936;-73
2023/11/25 10:28:25;;;;;;;;;;;;;;;3.83;100.00;95998.63;5124465;28;19955;-73
2023/11/25 10:30:59;;;;;;;;;;;;;;;4.02;100.00;95981.59;5107739;28;19959;-73
2023/11/25 10:33:27;;;;;;;;;;;;;;;4.18;100.00;95992.69;5106948;28;20223;-73
2023/11/25 10:35:53;;;;;;;;;;;;;;;4.15;100.00;95990.50;5107663;28;19948;-73
2023/11/25 10:38:22;;;;;;;;;;;;;;;4.11;100.00;95991.84;5107713;28;20333;-71
2023/11/25 10:40:48;;;;;;;;;;;;;;;4.01;100.00;95984.38;5108360;28;19956;-71
2023/11/25 10:43:15;;;;;;;;;;;;;;;3.85;100.00;95969.91;5107352;28;19948;-70
2023/11/25 10:45:42;;;;;;;;;;;;;;;3.71;100.00;95961.19;5107418;28;19960;-70
2023/11/25 10:48:08;;;;;;;;;;;;;;;3.58;100.00;95967.06;5108059;28;19965;-70
2023/11/25 10:50:34;;;;;;;;;;;;;;;3.68;100.00;95960.78;5089293;28;20014;-70
2023/11/25 10:53:03;;;;;;;;;;;;;;;3.72;100.00;95936.88;5107315;28;19956;-71
2023/11/25 10:55:32;;;;;;;;;;;;;;;3.94;100.00;95929.84;5123251;28;20144;-70
2023/11/25 10:58:00;;;;;;;;;;;;;;;4.00;100.00;95936.09;5107809;28;20125;-78
2023/11/25 11:00:30;;;;;;;;;;;;;;;4.12;100.00;95949.34;5123064;28;20122;-73
2023/11/25 11:02:57;;;;;;;;;;;;;;;4.38;100.00;95912.38;5107112;28;19937;-73
2023/11/25 11:05:42;;;;;;;;;;;;;;;4.51;100.00;95893.47;5107099;28;19961;-73
2023/11/25 11:08:11;;;;;;;;;;;;;;;4.74;100.00;95916.53;5106963;28;19964;-73
2023/11/25 11:10:45;;;;;;;;;;;;;;;4.86;100.00;95852.63;5107862;28;19945;-73
2023/11/25 11:13:12;;;;;;;;;;;;;;;4.99;100.00;95883.81;5107156;28;20224;-73
2023/11/25 11:15:38;;;;;;;;;;;;;;;4.88;100.00;95861.03;5107147;28;19940;-70
2023/11/25 11:18:13;;;;;;;;;;;;;;;4.71;100.00;95885.75;5106089;28;19955;-76
2023/11/25 11:20:44;;;;;;;;;;;;;;;4.47;100.00;95890.44;5106786;28;20200;-76
2023/11/25 11:23:10;;;;;;;;;;;;;;;4.32;100.00;95871.59;5107584;28;19946;-76
2023/11/25 11:25:40;;;;;;;;;;;;;;;4.22;100.00;95924.66;5107225;28;20223;-76
2023/11/25 11:28:25;;;;;;;;;;;;;;;4.17;100.00;95905.47;5107126;28;20239;-76
2023/11/25 11:30:51;;;;;;;;;;;;;;;4.09;100.00;95916.78;5107159;28;19937;-76
2023/11/25 11:33:17;;;;;;;;;;;;;;;4.01;100.00;95942.88;5106885;28;19943;-73
2023/11/25 11:35:43;;;;;;;;;;;;;;;3.90;100.00;95939.00;5122983;28;19947;-73
2023/11/25 11:38:22;;;;;;;;;;;;;;;3.84;100.00;95919.00;5122243;28;19971;-77
2023/11/25 11:40:48;;;;;;;;;;;;;;;3.77;100.00;95946.69;5106425;28;20125;-76
2023/11/25 11:43:18;;;;;;;;;;;;;;;3.71;100.00;95943.03;5106595;28;19934;-76
2023/11/25 11:45:44;;;;;;;;;;;;;;;3.64;100.00;95947.38;5106594;28;19950;-76
2023/11/25 11:48:13;;;;;;;;;;;;;;;3.58;100.00;95961.88;5106715;28;19954;-76
2023/11/25 11:50:42;;;;;;;;;;;;;;;3.57;100.00;95956.88;5106081;28;20229;-76
2023/11/25 11:53:14;;;;;;;;;;;;;;;3.51;100.00;95942.88;5122114;28;19937;-73
2023/11/25 11:55:48;;;;;;;;;;;;;;;3.31;100.00;95921.16;5107114;28;19937;-88
2023/11/25 11:58:18;;;;;;;;;;;;;;;3.24;100.00;95950.41;5122845;28;19940;-86
2023/11/25 12:01:05;;;;;;;;;;;;;;;3.15;100.00;95958.47;5106301;28;20049;-86
2023/11/25 12:03:31;;;;;;;;;;;;;;;3.10;100.00;95947.84;5106313;28;19943;-87
2023/11/25 12:05:57;;;;;;;;;;;;;;;3.10;100.00;95966.00;5105958;28;19942;-86
2023/11/25 12:08:24;;;;;;;;;;;;;;;3.16;100.00;95954.91;5105898;28;19953;-87
2023/11/25 12:10:51;;;;;;;;;;;;;;;3.19;100.00;95951.94;5106321;28;19980;-76
2023/11/25 12:13:28;;;;;;;;;;;;;;;3.18;100.00;95943.34;5106586;28;19936;-71
2023/11/25 12:15:59;;;;;;;;;;;;;;;3.29;100.00;95947.25;5104629;28;20271;-72
2023/11/25 12:18:28;;;;;;;;;;;;;;;3.37;100.00;95939.34;5105705;28;20237;-71
2023/11/25 12:20:54;;;;;;;;;;;;;;;3.42;100.00;95934.44;5105858;28;19946;-71
2023/11/25 12:23:19;;;;;;;;;;;;;;;3.39;100.00;95941.78;5106353;28;19973;-71
2023/11/25 12:25:46;;;;;;;;;;;;;;;3.37;100.00;95944.53;5105502;28;20222;-71
2023/11/25 12:28:13;;;;;;;;;;;;;;;3.37;100.00;95935.97;5105456;28;19958;-70
2023/11/25 12:30:39;;;;;;;;;;;;;;;3.30;100.00;95941.09;5105317;28;19939;-70
2023/11/25 12:33:06;;;;;;;;;;;;;;;3.17;100.00;95938.34;5105415;28;20124;-76
2023/11/25 12:35:35;;;;;;;;;;;;;;;2.97;100.00;95946.72;5087099;28;19941;-75
2023/11/25 12:38:02;;;;;;;;;;;;;;;2.94;100.00;95952.28;5105936;28;19963;-75
2023/11/25 12:40:28;;;;;;;;;;;;;;;2.97;100.00;95949.31;5105484;28;20122;-75
2023/11/25 12:42:54;;;;;;;;;;;;;;;3.09;100.00;95944.47;5105973;28;19944;-76